YF1 CNC3-CYKF
Flight info
| Callsign | YF1 |
|---|---|
| Flight time | 0h 19m |
| Altitude | 5000 |
| Route | |
| Aircraft | C172 |
Departure
| Time | 2026-04-22 00:48 |
|---|---|
| Airport | Brampton-Caledon Airport (CNC3) |
Arrival
| Time | 2026-04-22 01:07 |
|---|---|
| Airport | Region of Waterloo International Airport (CYKF) |
| Time | Latitude | Longitude | Altitude | Speed | Heading |
|---|---|---|---|---|---|
| 2026-04-22 00:48 | 43.72598 | -79.92429 | 2512 ft | 91 kts | 221° |
| 2026-04-22 00:48 | 43.72095 | -79.93050 | 2322 ft | 102 kts | 221° |
| 2026-04-22 00:49 | 43.71581 | -79.93665 | 2309 ft | 93 kts | 220° |
| 2026-04-22 00:49 | 43.71133 | -79.94205 | 2356 ft | 82 kts | 220° |
| 2026-04-22 00:49 | 43.70719 | -79.94763 | 2507 ft | 83 kts | 221° |
| 2026-04-22 00:49 | 43.70269 | -79.95255 | 2636 ft | 84 kts | 214° |
| 2026-04-22 00:50 | 43.69817 | -79.95623 | 2878 ft | 70 kts | 213° |
| 2026-04-22 00:50 | 43.69379 | -79.95973 | 3034 ft | 73 kts | 216° |
| 2026-04-22 00:50 | 43.68961 | -79.96413 | 3224 ft | 74 kts | 224° |
| 2026-04-22 00:50 | 43.68560 | -79.96821 | 3429 ft | 70 kts | 223° |
| 2026-04-22 00:51 | 43.68202 | -79.97236 | 3506 ft | 66 kts | 226° |
| 2026-04-22 00:51 | 43.67818 | -79.97648 | 3582 ft | 70 kts | 222° |
| 2026-04-22 00:51 | 43.67416 | -79.97988 | 3734 ft | 69 kts | 216° |
| 2026-04-22 00:51 | 43.66977 | -79.98261 | 3884 ft | 69 kts | 208° |
| 2026-04-22 00:52 | 43.66530 | -79.98492 | 4026 ft | 68 kts | 220° |
| 2026-04-22 00:52 | 43.66113 | -79.98836 | 4127 ft | 71 kts | 222° |
| 2026-04-22 00:52 | 43.65701 | -79.99236 | 4258 ft | 73 kts | 225° |
| 2026-04-22 00:52 | 43.65278 | -79.99656 | 4383 ft | 74 kts | 224° |
| 2026-04-22 00:53 | 43.64866 | -80.00033 | 4603 ft | 66 kts | 225° |
| 2026-04-22 00:53 | 43.64476 | -80.00324 | 4840 ft | 63 kts | 221° |
| 2026-04-22 00:53 | 43.64061 | -80.00579 | 4979 ft | 68 kts | 219° |
| 2026-04-22 00:53 | 43.63595 | -80.00839 | 5013 ft | 81 kts | 217° |
| 2026-04-22 00:54 | 43.63070 | -80.01170 | 5027 ft | 88 kts | 218° |
| 2026-04-22 00:54 | 43.62495 | -80.01553 | 4957 ft | 96 kts | 219° |
| 2026-04-22 00:54 | 43.61945 | -80.01925 | 4932 ft | 81 kts | 219° |
| 2026-04-22 00:54 | 43.61471 | -80.02226 | 4960 ft | 70 kts | 219° |
| 2026-04-22 00:55 | 43.61131 | -80.02587 | 4979 ft | 56 kts | 238° |
| 2026-04-22 00:55 | 43.60972 | -80.03041 | 4987 ft | 52 kts | 248° |
| 2026-04-22 00:55 | 43.60623 | -80.04084 | 5000 ft | 74 kts | 248° |
| 2026-04-22 00:56 | 43.60402 | -80.04767 | 5000 ft | 81 kts | 248° |
| 2026-04-22 00:56 | 43.60165 | -80.05490 | 5002 ft | 84 kts | 248° |
| 2026-04-22 00:56 | 43.59922 | -80.06231 | 5000 ft | 85 kts | 248° |
| 2026-04-22 00:56 | 43.59677 | -80.06974 | 4987 ft | 85 kts | 248° |
| 2026-04-22 00:57 | 43.59438 | -80.07714 | 4991 ft | 84 kts | 248° |
| 2026-04-22 00:57 | 43.59203 | -80.08446 | 4971 ft | 84 kts | 248° |
| 2026-04-22 00:57 | 43.58965 | -80.09183 | 4969 ft | 85 kts | 248° |
| 2026-04-22 00:57 | 43.58720 | -80.09929 | 4968 ft | 86 kts | 248° |
| 2026-04-22 00:58 | 43.58474 | -80.10679 | 4967 ft | 86 kts | 248° |
| 2026-04-22 00:58 | 43.58229 | -80.11425 | 4975 ft | 85 kts | 248° |
| 2026-04-22 00:58 | 43.57986 | -80.12178 | 4960 ft | 86 kts | 248° |
| 2026-04-22 00:58 | 43.57743 | -80.12931 | 4967 ft | 85 kts | 248° |
| 2026-04-22 00:59 | 43.57500 | -80.13680 | 4971 ft | 86 kts | 248° |
| 2026-04-22 00:59 | 43.57254 | -80.14434 | 4964 ft | 86 kts | 248° |
| 2026-04-22 00:59 | 43.57010 | -80.15178 | 4955 ft | 86 kts | 248° |
| 2026-04-22 00:59 | 43.56761 | -80.15926 | 4953 ft | 85 kts | 248° |
| 2026-04-22 01:00 | 43.56513 | -80.16657 | 4965 ft | 84 kts | 248° |
| 2026-04-22 01:00 | 43.56238 | -80.17420 | 4956 ft | 90 kts | 248° |
| 2026-04-22 01:00 | 43.55952 | -80.18191 | 4962 ft | 90 kts | 247° |
| 2026-04-22 01:00 | 43.55663 | -80.18961 | 4966 ft | 91 kts | 247° |
| 2026-04-22 01:01 | 43.55372 | -80.19733 | 4965 ft | 90 kts | 248° |
| 2026-04-22 01:01 | 43.55077 | -80.20501 | 4965 ft | 91 kts | 247° |
| 2026-04-22 01:01 | 43.54779 | -80.21273 | 4966 ft | 91 kts | 247° |
| 2026-04-22 01:01 | 43.54479 | -80.22053 | 4934 ft | 94 kts | 247° |
| 2026-04-22 01:02 | 43.54274 | -80.22600 | 4857 ft | 98 kts | 247° |
| 2026-04-22 01:02 | 43.53963 | -80.23458 | 4741 ft | 101 kts | 247° |
| 2026-04-22 01:02 | 43.53649 | -80.24331 | 4619 ft | 102 kts | 247° |
| 2026-04-22 01:02 | 43.53338 | -80.25206 | 4494 ft | 102 kts | 247° |
| 2026-04-22 01:03 | 43.53030 | -80.26085 | 4362 ft | 102 kts | 247° |
| 2026-04-22 01:03 | 43.52724 | -80.26961 | 4235 ft | 101 kts | 246° |
| 2026-04-22 01:03 | 43.52424 | -80.27843 | 4108 ft | 102 kts | 246° |
| 2026-04-22 01:03 | 43.52128 | -80.28736 | 3983 ft | 103 kts | 246° |
| 2026-04-22 01:04 | 43.51835 | -80.29642 | 3859 ft | 104 kts | 246° |
| 2026-04-22 01:04 | 43.51545 | -80.30554 | 3736 ft | 104 kts | 246° |
| 2026-04-22 01:04 | 43.51257 | -80.31473 | 3611 ft | 105 kts | 246° |
| 2026-04-22 01:04 | 43.50975 | -80.32395 | 3481 ft | 104 kts | 246° |
| 2026-04-22 01:05 | 43.50706 | -80.33325 | 3158 ft | 111 kts | 248° |
| 2026-04-22 01:05 | 43.50440 | -80.34311 | 2883 ft | 112 kts | 246° |
| 2026-04-22 01:05 | 43.50157 | -80.35347 | 2460 ft | 118 kts | 243° |
| 2026-04-22 01:05 | 43.49818 | -80.36361 | 2200 ft | 113 kts | 236° |
| 2026-04-22 01:06 | 43.49352 | -80.37175 | 2170 ft | 106 kts | 225° |
| 2026-04-22 01:06 | 43.48861 | -80.37944 | 2040 ft | 109 kts | 226° |
| 2026-04-22 01:06 | 43.48295 | -80.38786 | 1600 ft | 130 kts | 225° |
| 2026-04-22 01:06 | 43.47584 | -80.39524 | 1361 ft | 127 kts | 200° |
| 2026-04-22 01:07 | 43.46829 | -80.39708 | 1341 ft | 77 kts | 174° |
| 2026-04-22 01:07 | 43.46412 | -80.39428 | 1184 ft | 72 kts | 130° |
| 2026-04-22 01:07 | 43.46117 | -80.38923 | 1031 ft | 57 kts | 132° |
| 2026-04-22 01:07 | 43.45921 | -80.38595 | 1029 ft | 37 kts | 130° |
| 2026-04-22 01:08 | 43.45815 | -80.38459 | 1028 ft | 13 kts | 210° |
| 2026-04-22 01:08 | 43.45781 | -80.38525 | 1028 ft | 0 kts | 236° |